Time;durP1;ratioP1;P1;durP2;ratioP2;P2;SDS_P1;SDS_P2;PMS_P1;PMS_P2;Temp;Humidity;BMP_temperature;BMP_pressure;BME280_temperature;BME280_humidity;BME280_pressure;Samples;Min_cycle;Max_cycle;Signal;HPM_P1;HPM_P2
2021/10/02 00:01:50;;;;;;;5.70;4.93;;;13.90;99.90;;;;;;5021280;28;20523;-61
2021/10/02 00:33:24;;;;;;;5.97;5.57;;;14.00;99.90;;;;;;5034936;28;20416;-56
2021/10/02 00:37:32;;;;;;;6.33;5.83;;;14.00;99.90;;;;;;5020469;28;20520;-58
2021/10/02 00:45:27;;;;;;;6.67;6.00;;;14.10;99.90;;;;;;5034798;28;20425;-62
2021/10/02 00:47:56;;;;;;;7.70;6.47;;;14.10;99.90;;;;;;5019374;28;20461;-58
2021/10/02 00:50:23;;;;;;;7.13;6.57;;;14.00;99.90;;;;;;5014733;28;20446;-59
2021/10/02 00:52:51;;;;;;;7.30;6.60;;;14.10;99.90;;;;;;5014681;28;20450;-58
2021/10/02 00:55:18;;;;;;;7.30;6.70;;;14.10;99.90;;;;;;5021362;28;20449;-59
2021/10/02 00:57:45;;;;;;;8.43;6.97;;;14.00;99.90;;;;;;5034168;28;20954;-62
2021/10/02 01:00:12;;;;;;;7.30;6.60;;;14.00;99.90;;;;;;5034345;28;20496;-59
2021/10/02 01:02:49;;;;;;;10.57;7.10;;;14.10;99.90;;;;;;5034543;28;20441;-59
2021/10/02 01:05:43;;;;;;;7.13;6.60;;;14.00;99.90;;;;;;5027730;28;20476;-58
2021/10/02 01:08:23;;;;;;;7.23;5.73;;;14.10;99.90;;;;;;5011061;28;20461;-62
2021/10/02 01:10:56;;;;;;;6.83;6.23;;;14.10;99.90;;;;;;5014681;28;20453;-56
2021/10/02 01:13:31;;;;;;;6.50;5.90;;;14.10;99.90;;;;;;5014359;28;20449;-56
2021/10/02 01:16:00;;;;;;;6.17;5.57;;;14.10;99.90;;;;;;5014294;28;20848;-61
2021/10/02 01:18:30;;;;;;;6.07;5.57;;;14.10;99.90;;;;;;5029379;28;20469;-57
2021/10/02 01:21:27;;;;;;;6.47;5.90;;;14.10;99.90;;;;;;5032218;28;20481;-57
2021/10/02 01:24:02;;;;;;;7.07;6.47;;;14.10;99.90;;;;;;5033971;28;20836;-57
2021/10/02 01:26:59;;;;;;;5.63;5.20;;;14.10;99.90;;;;;;5033881;28;20467;-61
2021/10/02 01:29:28;;;;;;;7.63;4.90;;;14.10;99.90;;;;;;5024008;28;20477;-58
2021/10/02 01:32:03;;;;;;;6.73;6.20;;;14.10;99.90;;;;;;5014204;28;20446;-58
2021/10/02 01:34:37;;;;;;;5.67;5.27;;;14.10;99.90;;;;;;5014058;28;20927;-63
2021/10/02 01:37:15;;;;;;;8.07;5.67;;;14.10;99.90;;;;;;5013890;28;20951;-60
2021/10/02 01:48:01;;;;;;;6.33;5.73;;;14.10;99.90;;;;;;5033166;28;20424;-61
2021/10/02 01:50:30;;;;;;;5.73;5.33;;;14.20;99.90;;;;;;5048712;22;20502;-66
2021/10/02 01:53:01;;;;;;;4.87;4.57;;;14.20;99.90;;;;;;5020739;28;20447;-65
2021/10/02 01:55:31;;;;;;;4.80;4.50;;;14.20;99.90;;;;;;5013474;28;20446;-66
2021/10/02 01:58:01;;;;;;;5.77;5.27;;;14.20;99.90;;;;;;5013434;28;20480;-66
2021/10/02 02:00:30;;;;;;;4.90;4.60;;;14.30;99.90;;;;;;5013311;28;20987;-65
2021/10/02 02:03:04;;;;;;;6.90;5.13;;;14.30;99.90;;;;;;5013287;28;20454;-66
2021/10/02 02:05:31;;;;;;;6.23;5.73;;;14.30;99.90;;;;;;5023132;28;20453;-66
2021/10/02 02:08:02;;;;;;;5.00;4.60;;;14.30;99.90;;;;;;5033030;28;20449;-66
2021/10/02 02:10:31;;;;;;;5.63;5.10;;;14.40;99.90;;;;;;5032914;28;20827;-65
2021/10/02 02:13:00;;;;;;;4.60;4.30;;;14.40;99.90;;;;;;5032988;28;20456;-65
2021/10/02 02:15:31;;;;;;;5.07;4.77;;;14.40;99.90;;;;;;5032884;28;20449;-64
2021/10/02 02:18:02;;;;;;;4.60;4.30;;;14.40;99.90;;;;;;5020887;28;20971;-65
2021/10/02 02:20:32;;;;;;;4.90;4.50;;;14.40;99.90;;;;;;5012805;28;20470;-66
2021/10/02 02:23:00;;;;;;;4.80;4.50;;;14.40;99.90;;;;;;5012906;28;20458;-65
2021/10/02 02:25:27;;;;;;;4.87;4.47;;;14.40;99.90;;;;;;5013083;28;20814;-65
2021/10/02 02:27:54;;;;;;;4.80;4.53;;;14.40;99.90;;;;;;5012871;28;20445;-65
2021/10/02 02:30:21;;;;;;;3.57;3.47;;;14.40;99.90;;;;;;5028656;28;20488;-66
2021/10/02 02:32:51;;;;;;;3.93;3.83;;;14.40;99.90;;;;;;5032525;28;20445;-65
2021/10/02 02:35:19;;;;;;;4.20;4.10;;;14.50;99.90;;;;;;5032589;28;20441;-66
2021/10/02 02:37:46;;;;;;;4.03;3.83;;;14.40;99.90;;;;;;5032315;28;20453;-65
2021/10/02 02:40:13;;;;;;;4.17;3.97;;;14.50;99.90;;;;;;5032315;28;20993;-66
2021/10/02 02:42:41;;;;;;;3.83;3.73;;;14.50;99.90;;;;;;5013602;28;20486;-66
2021/10/02 02:45:10;;;;;;;3.80;3.70;;;14.40;99.90;;;;;;5012568;28;20816;-66
2021/10/02 02:47:44;;;;;;;3.90;3.80;;;14.40;99.90;;;;;;5012499;28;20864;-65
2021/10/02 02:50:18;;;;;;;4.10;4.00;;;14.40;99.90;;;;;;5023244;28;20472;-65
2021/10/02 02:52:48;;;;;;;4.37;4.27;;;14.40;99.90;;;;;;5032278;28;20448;-65
2021/10/02 02:55:20;;;;;;;3.80;3.70;;;14.40;99.90;;;;;;5031993;28;20453;-66
2021/10/02 02:57:49;;;;;;;3.90;3.80;;;14.50;99.90;;;;;;4992697;28;20438;-65
2021/10/02 03:00:19;;;;;;;4.23;4.03;;;14.50;99.90;;;;;;4992653;28;20583;-66
2021/10/02 03:02:53;;;;;;;3.80;3.70;;;14.50;99.90;;;;;;4992744;28;20490;-66
2021/10/02 03:05:22;;;;;;;4.07;3.97;;;14.40;99.90;;;;;;4992661;28;20463;-66
2021/10/02 03:07:55;;;;;;;4.23;4.03;;;14.40;99.90;;;;;;5030897;28;20453;-64
2021/10/02 03:10:22;;;;;;;4.20;4.10;;;14.40;99.90;;;;;;5031843;28;20465;-65
2021/10/02 03:12:52;;;;;;;4.47;4.37;;;14.40;99.90;;;;;;5031900;28;20444;-65
2021/10/02 03:15:19;;;;;;;4.50;4.40;;;14.40;99.90;;;;;;5031829;28;20441;-65
2021/10/02 03:17:49;;;;;;;4.43;4.33;;;14.40;99.90;;;;;;5029731;28;20448;-66
2021/10/02 03:20:17;;;;;;;4.40;4.30;;;14.40;99.90;;;;;;5012258;28;20469;-65
2021/10/02 03:22:47;;;;;;;4.67;4.57;;;14.40;99.90;;;;;;5011918;28;20843;-66
2021/10/02 03:25:15;;;;;;;5.50;5.30;;;14.40;99.90;;;;;;5012071;28;20939;-65
2021/10/02 03:27:42;;;;;;;5.50;5.30;;;14.40;99.90;;;;;;5011837;28;20442;-62
2021/10/02 03:30:10;;;;;;;6.47;6.07;;;14.40;99.90;;;;;;5017957;28;20833;-63
2021/10/02 03:32:37;;;;;;;6.20;5.90;;;14.40;99.90;;;;;;5031692;28;20476;-64
2021/10/02 03:35:05;;;;;;;6.30;6.00;;;14.40;99.90;;;;;;5031551;28;20449;-66
2021/10/02 03:37:32;;;;;;;5.70;5.50;;;14.40;99.90;;;;;;5031512;28;20445;-65
2021/10/02 03:40:00;;;;;;;6.40;6.17;;;14.40;99.90;;;;;;5012672;28;20476;-66
2021/10/02 03:42:26;;;;;;;6.50;6.20;;;14.40;99.90;;;;;;5011832;28;20487;-65
2021/10/02 03:44:54;;;;;;;7.00;6.60;;;14.40;99.90;;;;;;5011940;28;20442;-66
2021/10/02 03:47:22;;;;;;;6.97;6.67;;;14.40;99.90;;;;;;5011764;28;20450;-66
2021/10/02 03:49:49;;;;;;;7.57;7.17;;;14.40;99.90;;;;;;5028262;28;20499;-66
2021/10/02 03:52:16;;;;;;;7.50;7.10;;;14.40;99.90;;;;;;5032254;28;20437;-66
2021/10/02 03:54:43;;;;;;;7.27;6.87;;;14.50;99.90;;;;;;5035285;28;20452;-66
2021/10/02 03:57:11;;;;;;;7.03;6.73;;;14.50;99.90;;;;;;5035646;28;20449;-65
2021/10/02 03:59:38;;;;;;;7.10;6.80;;;14.50;99.90;;;;;;5035308;28;20461;-64
2021/10/02 04:02:05;;;;;;;7.83;7.10;;;14.60;99.90;;;;;;5018717;28;20994;-65
2021/10/02 04:04:31;;;;;;;5.97;5.43;;;14.50;99.90;;;;;;5015553;28;21022;-66
2021/10/02 04:06:58;;;;;;;5.93;5.73;;;14.50;99.90;;;;;;5015552;28;20450;-64
2021/10/02 04:09:26;;;;;;;5.73;5.43;;;14.50;99.90;;;;;;5015221;28;20994;-66
2021/10/02 04:11:53;;;;;;;5.23;4.90;;;14.60;99.90;;;;;;5015571;28;20450;-65
2021/10/02 04:14:21;;;;;;;6.03;5.73;;;14.50;99.90;;;;;;5032831;28;20449;-66
2021/10/02 04:16:48;;;;;;;5.53;5.33;;;14.60;99.90;;;;;;5034940;28;20459;-66
2021/10/02 04:19:15;;;;;;;6.63;6.23;;;14.50;99.90;;;;;;5034858;28;20472;-66
2021/10/02 04:21:42;;;;;;;6.17;5.87;;;14.50;99.90;;;;;;5034994;28;20484;-66
2021/10/02 04:24:09;;;;;;;6.70;6.40;;;14.50;99.90;;;;;;5020307;28;20866;-64
2021/10/02 04:26:36;;;;;;;6.00;5.60;;;14.50;99.90;;;;;;5015203;28;20446;-66
2021/10/02 04:29:03;;;;;;;6.03;5.73;;;14.50;99.90;;;;;;5014952;28;20482;-66
2021/10/02 04:31:31;;;;;;;6.63;6.13;;;14.40;99.90;;;;;;5015145;28;20935;-66
2021/10/02 04:33:58;;;;;;;10.27;5.63;;;14.50;99.90;;;;;;5024237;28;20449;-68
2021/10/02 04:36:25;;;;;;;5.90;5.60;;;14.50;99.90;;;;;;5034811;28;20448;-65
2021/10/02 04:38:53;;;;;;;6.57;6.07;;;14.40;99.90;;;;;;5034184;28;20477;-67
2021/10/02 04:41:20;;;;;;;7.10;6.70;;;14.40;99.90;;;;;;5034609;28;20508;-65
2021/10/02 04:43:47;;;;;;;5.87;5.57;;;14.40;99.90;;;;;;5034574;28;20953;-64
2021/10/02 04:46:15;;;;;;;6.60;6.30;;;14.40;99.90;;;;;;5025618;28;20457;-68
2021/10/02 04:48:44;;;;;;;6.03;5.83;;;14.40;99.90;;;;;;5014303;28;20492;-67
2021/10/02 04:51:12;;;;;;;5.90;5.70;;;14.40;99.90;;;;;;5014723;28;20974;-69
2021/10/02 04:53:39;;;;;;;5.97;5.77;;;14.40;99.90;;;;;;5014707;28;20460;-66
2021/10/02 04:56:09;;;;;;;5.70;5.40;;;14.40;99.90;;;;;;5014605;28;20453;-65
2021/10/02 04:58:35;;;;;;;6.53;6.03;;;14.40;99.90;;;;;;5027342;28;20449;-65
2021/10/02 05:01:03;;;;;;;6.00;5.80;;;14.50;99.90;;;;;;5034461;28;20441;-65
2021/10/02 05:03:30;;;;;;;6.00;5.50;;;14.40;99.90;;;;;;5034121;28;20956;-65
2021/10/02 05:05:58;;;;;;;7.13;6.63;;;14.40;99.90;;;;;;5028359;28;20468;-68
2021/10/02 05:08:25;;;;;;;6.23;6.03;;;14.40;99.90;;;;;;5014088;28;20531;-67
2021/10/02 05:10:51;;;;;;;5.83;5.53;;;14.40;99.90;;;;;;5014500;28;20457;-68
2021/10/02 05:13:18;;;;;;;5.57;5.47;;;14.30;99.90;;;;;;5014289;28;20461;-65
2021/10/02 05:15:45;;;;;;;5.70;5.37;;;14.30;99.90;;;;;;5017547;28;20808;-66
2021/10/02 05:18:12;;;;;;;5.33;5.20;;;14.30;99.90;;;;;;5033517;28;20463;-64
2021/10/02 05:20:39;;;;;;;4.97;4.77;;;14.30;99.90;;;;;;5033753;28;20477;-66
2021/10/02 05:23:07;;;;;;;4.93;4.73;;;14.20;99.90;;;;;;5034009;28;20996;-66
2021/10/02 05:25:34;;;;;;;5.10;4.90;;;14.20;99.90;;;;;;5034013;28;20766;-65
2021/10/02 05:28:01;;;;;;;6.60;5.60;;;14.20;99.90;;;;;;5030457;28;20442;-66
2021/10/02 05:30:28;;;;;;;5.17;4.77;;;14.20;99.90;;;;;;5013944;28;20473;-67
2021/10/02 05:32:54;;;;;;;5.40;5.00;;;14.20;99.90;;;;;;5014046;28;20453;-64
2021/10/02 05:35:21;;;;;;;4.97;4.77;;;14.10;99.90;;;;;;5013951;28;20459;-66
2021/10/02 05:37:48;;;;;;;5.17;4.97;;;14.10;99.90;;;;;;5013833;28;20457;-67
2021/10/02 05:40:17;;;;;;;5.50;5.27;;;14.00;99.90;;;;;;5015833;28;20465;-65
2021/10/02 05:42:43;;;;;;;4.73;4.53;;;13.90;99.90;;;;;;5033483;28;20483;-64
2021/10/02 05:45:10;;;;;;;4.80;4.60;;;13.90;99.90;;;;;;5033650;28;20829;-68
2021/10/02 05:47:37;;;;;;;4.80;4.57;;;13.80;99.90;;;;;;5033636;28;20941;-66
2021/10/02 05:50:05;;;;;;;4.00;3.80;;;13.80;99.90;;;;;;5033021;28;20480;-65
2021/10/02 05:52:32;;;;;;;4.50;4.30;;;13.80;99.90;;;;;;5029130;28;20442;-65
2021/10/02 05:54:59;;;;;;;3.87;3.67;;;13.90;99.90;;;;;;5013592;28;20449;-66
2021/10/02 05:57:27;;;;;;;3.93;3.83;;;13.90;99.90;;;;;;5013581;28;20477;-67
2021/10/02 05:59:53;;;;;;;3.90;3.60;;;13.90;99.90;;;;;;5013235;28;20469;-64
2021/10/02 06:02:20;;;;;;;3.80;3.50;;;14.00;99.90;;;;;;5013342;28;20485;-66
2021/10/02 06:04:47;;;;;;;3.60;3.40;;;14.00;99.90;;;;;;5020093;28;20864;-66
2021/10/02 06:07:13;;;;;;;3.93;3.83;;;14.10;99.90;;;;;;5033242;28;20449;-66
2021/10/02 06:09:40;;;;;;;4.10;3.90;;;14.10;99.90;;;;;;5032672;28;20856;-66
2021/10/02 06:12:07;;;;;;;4.10;4.00;;;14.10;99.90;;;;;;5032844;28;20445;-66
2021/10/02 06:14:35;;;;;;;4.20;3.90;;;14.10;99.90;;;;;;5033016;28;20476;-65
2021/10/02 06:17:02;;;;;;;3.63;3.53;;;14.10;99.90;;;;;;5022664;28;20530;-64
2021/10/02 06:19:28;;;;;;;4.33;4.13;;;14.20;99.90;;;;;;5012725;28;20466;-65
2021/10/02 06:21:56;;;;;;;4.83;4.40;;;14.20;99.90;;;;;;5013096;28;20481;-66
2021/10/02 06:24:24;;;;;;;5.00;4.70;;;14.30;99.90;;;;;;5013083;28;20449;-65
2021/10/02 06:26:51;;;;;;;5.93;5.43;;;14.30;99.90;;;;;;5012982;28;20508;-66
2021/10/02 06:29:19;;;;;;;5.47;5.07;;;14.40;99.90;;;;;;5025599;28;21009;-65
2021/10/02 06:31:47;;;;;;;5.93;5.63;;;14.40;99.90;;;;;;5032663;28;20817;-64
2021/10/02 06:34:14;;;;;;;6.27;5.87;;;14.50;99.90;;;;;;5032627;28;20444;-67
2021/10/02 06:36:42;;;;;;;7.37;6.97;;;14.60;99.90;;;;;;5032488;28;20999;-66
2021/10/02 06:39:08;;;;;;;6.40;6.00;;;14.80;99.90;;;;;;5032290;28;20963;-65
2021/10/02 06:41:35;;;;;;;6.53;6.20;;;14.80;99.90;;;;;;5018996;28;20450;-66
2021/10/02 06:44:02;;;;;;;7.97;7.47;;;14.80;99.90;;;;;;5012625;28;20454;-64
2021/10/02 06:46:29;;;;;;;7.27;6.90;;;14.90;99.90;;;;;;5012646;28;20453;-66
2021/10/02 06:48:57;;;;;;;6.70;6.40;;;15.00;99.90;;;;;;5016793;28;21024;-67
2021/10/02 06:51:24;;;;;;;6.93;6.73;;;15.10;99.90;;;;;;5032323;28;20452;-66
2021/10/02 06:53:51;;;;;;;8.07;7.60;;;15.10;99.90;;;;;;5032334;28;20441;-64
2021/10/02 06:56:19;;;;;;;8.10;7.70;;;15.30;99.90;;;;;;5032274;28;20897;-65
2021/10/02 06:58:45;;;;;;;9.80;9.30;;;15.40;99.90;;;;;;5028409;28;20470;-66
2021/10/02 07:01:12;;;;;;;9.70;9.30;;;15.60;99.90;;;;;;5012290;28;20461;-66
2021/10/02 07:03:39;;;;;;;9.47;8.90;;;15.70;99.90;;;;;;5012077;28;20482;-65
2021/10/02 07:06:07;;;;;;;9.40;9.00;;;15.70;99.90;;;;;;5012331;28;20446;-67
2021/10/02 07:08:33;;;;;;;10.73;10.03;;;15.70;99.90;;;;;;5012010;28;20476;-63
2021/10/02 07:11:00;;;;;;;10.40;10.00;;;15.70;99.90;;;;;;5017847;28;20445;-64
2021/10/02 07:13:27;;;;;;;11.33;10.73;;;15.70;99.90;;;;;;5031669;28;20456;-64
2021/10/02 07:15:54;;;;;;;10.40;10.00;;;15.70;99.90;;;;;;5022986;28;20447;-65
2021/10/02 07:18:20;;;;;;;10.67;10.13;;;15.70;99.90;;;;;;5019852;28;20441;-64
2021/10/02 07:20:47;;;;;;;10.80;10.23;;;15.70;99.90;;;;;;5020221;28;20456;-64
2021/10/02 07:23:19;;;;;;;10.87;10.37;;;15.90;99.90;;;;;;5015055;28;20499;-64
2021/10/02 07:25:45;;;;;;;10.37;9.90;;;16.00;99.90;;;;;;5000484;28;20859;-64
2021/10/02 07:28:12;;;;;;;11.07;10.67;;;16.10;99.90;;;;;;4999702;28;20446;-63
2021/10/02 07:30:39;;;;;;;10.70;10.30;;;16.10;99.90;;;;;;5000047;28;20947;-63
2021/10/02 07:33:06;;;;;;;10.50;10.00;;;16.20;99.90;;;;;;5000246;28;20442;-66
2021/10/02 07:35:33;;;;;;;11.00;10.60;;;16.20;99.90;;;;;;5007274;28;21018;-64
2021/10/02 07:38:01;;;;;;;9.97;9.67;;;16.20;99.90;;;;;;5019325;28;20441;-63
2021/10/02 07:40:29;;;;;;;11.50;10.93;;;16.20;99.90;;;;;;5019698;28;20472;-64
2021/10/02 07:42:59;;;;;;;10.73;10.43;;;16.20;99.90;;;;;;5019806;28;20922;-63
2021/10/02 07:45:26;;;;;;;11.37;10.90;;;16.30;99.90;;;;;;5019791;28;20456;-64
2021/10/02 07:47:55;;;;;;;10.90;10.60;;;16.40;99.90;;;;;;5011487;28;20449;-64
2021/10/02 07:50:23;;;;;;;11.90;11.50;;;16.50;99.90;;;;;;5048196;22;20532;-62
2021/10/02 07:52:51;;;;;;;11.27;10.90;;;16.50;99.90;;;;;;5023743;28;20468;-63
2021/10/02 07:55:18;;;;;;;11.40;11.00;;;16.60;99.90;;;;;;5039559;28;21678;-63
2021/10/02 07:57:47;;;;;;;12.27;11.77;;;16.60;99.90;;;;;;5039138;28;20916;-64
2021/10/02 08:00:16;;;;;;;11.13;10.83;;;16.70;99.90;;;;;;5028983;28;20473;-65
2021/10/02 08:02:44;;;;;;;11.60;11.13;;;16.80;99.90;;;;;;5019477;28;20508;-66
2021/10/02 08:05:12;;;;;;;12.67;12.07;;;17.00;99.90;;;;;;5019296;28;20454;-64
2021/10/02 08:07:41;;;;;;;12.47;12.07;;;17.30;99.90;;;;;;5019314;28;20448;-64
2021/10/02 08:10:08;;;;;;;12.33;11.97;;;17.50;99.90;;;;;;5029039;28;20920;-64
2021/10/02 08:12:35;;;;;;;13.13;12.50;;;17.60;99.90;;;;;;5039910;28;20452;-65
2021/10/02 08:15:04;;;;;;;12.60;12.20;;;17.60;99.90;;;;;;5039256;28;21024;-63
2021/10/02 08:17:33;;;;;;;12.33;11.93;;;17.70;99.90;;;;;;5033971;28;20903;-64
2021/10/02 08:20:08;;;;;;;12.40;12.00;;;17.60;99.90;;;;;;5019246;28;20511;-64
2021/10/02 08:22:40;;;;;;;12.63;12.13;;;17.60;99.90;;;;;;5019446;28;20626;-64
2021/10/02 08:25:08;;;;;;;12.90;12.40;;;17.60;99.90;;;;;;5021690;28;21006;-64
2021/10/02 08:27:35;;;;;;;12.00;11.70;;;17.70;99.90;;;;;;5019312;28;21156;-63
2021/10/02 08:30:05;;;;;;;12.73;12.30;;;17.90;99.90;;;;;;5019006;28;20468;-63
2021/10/02 08:32:32;;;;;;;12.53;12.13;;;18.00;99.90;;;;;;5019313;28;20445;-63
2021/10/02 08:34:59;;;;;;;12.20;11.90;;;18.10;99.90;;;;;;5022823;28;20632;-63
2021/10/02 08:37:26;;;;;;;12.23;11.93;;;18.30;99.90;;;;;;5039256;28;20456;-61
2021/10/02 08:39:52;;;;;;;12.83;12.40;;;18.30;99.90;;;;;;5040390;28;20969;-63
2021/10/02 08:42:20;;;;;;;12.70;12.30;;;18.30;99.90;;;;;;5042787;28;20443;-63
2021/10/02 08:44:50;;;;;;;12.90;12.50;;;18.50;99.90;;;;;;5042857;28;20495;-65
2021/10/02 08:47:19;;;;;;;12.40;12.00;;;18.70;99.90;;;;;;5041340;28;20455;-62
2021/10/02 08:49:48;;;;;;;14.00;13.40;;;18.80;99.90;;;;;;5042172;28;20487;-63
2021/10/02 08:52:17;;;;;;;12.73;12.33;;;18.80;99.90;;;;;;5043227;28;20467;-63
2021/10/02 08:54:46;;;;;;;13.30;12.90;;;18.60;99.90;;;;;;5043331;28;20541;-63
2021/10/02 08:57:17;;;;;;;13.77;13.17;;;18.40;99.90;;;;;;5042845;28;20821;-63
2021/10/02 08:59:44;;;;;;;13.40;13.00;;;18.40;99.90;;;;;;5031875;28;21008;-62
2021/10/02 09:02:11;;;;;;;13.40;13.00;;;18.50;99.90;;;;;;5022436;28;20476;-62
2021/10/02 09:04:40;;;;;;;13.23;12.83;;;18.50;99.90;;;;;;5022534;28;20523;-65
2021/10/02 09:07:07;;;;;;;13.37;12.97;;;18.50;99.90;;;;;;5022733;28;20452;-63
2021/10/02 09:09:35;;;;;;;13.50;13.10;;;18.60;99.90;;;;;;5028285;28;20481;-64
2021/10/02 09:12:04;;;;;;;14.90;14.30;;;18.80;99.90;;;;;;5022690;28;20457;-63
2021/10/02 09:14:30;;;;;;;14.10;13.60;;;19.00;99.90;;;;;;5022438;28;20449;-63
2021/10/02 09:16:57;;;;;;;15.00;14.50;;;19.00;99.90;;;;;;5022420;28;20461;-63
2021/10/02 09:19:24;;;;;;;14.03;13.50;;;19.00;99.90;;;;;;5028732;28;20480;-63
2021/10/02 09:22:01;;;;;;;14.40;13.60;;;19.00;99.90;;;;;;5042124;28;20448;-65
2021/10/02 09:24:30;;;;;;;14.60;13.90;;;19.20;99.90;;;;;;5042726;28;20874;-64
2021/10/02 09:26:58;;;;;;;14.47;13.80;;;19.40;99.90;;;;;;5042001;28;20539;-64
2021/10/02 09:29:40;;;;;;;13.83;13.40;;;19.80;99.90;;;;;;5041661;28;20908;-65
2021/10/02 09:32:10;;;;;;;14.37;13.87;;;19.70;99.90;;;;;;5031607;28;20456;-63
2021/10/02 09:34:45;;;;;;;16.63;15.83;;;19.70;99.90;;;;;;5021929;28;20437;-63
2021/10/02 09:37:25;;;;;;;14.90;14.40;;;19.50;99.90;;;;;;5021895;28;20813;-65
2021/10/02 09:40:01;;;;;;;15.00;14.50;;;19.50;99.90;;;;;;5021428;28;20472;-63
2021/10/02 09:42:32;;;;;;;15.40;14.80;;;19.60;99.90;;;;;;5021620;28;20460;-63
2021/10/02 09:45:06;;;;;;;15.63;15.03;;;19.50;99.90;;;;;;5036316;28;20487;-64
2021/10/02 09:47:33;;;;;;;14.63;14.13;;;19.50;99.90;;;;;;5041698;28;20451;-63
2021/10/02 09:50:00;;;;;;;15.77;15.10;;;19.50;99.90;;;;;;5040705;28;20479;-64
2021/10/02 09:52:34;;;;;;;15.23;14.63;;;19.50;99.90;;;;;;5041323;28;20455;-65
2021/10/02 09:55:13;;;;;;;15.73;15.03;;;19.60;99.90;;;;;;5041826;28;20526;-64
2021/10/02 09:57:42;;;;;;;15.03;14.43;;;19.80;99.90;;;;;;5022090;28;20957;-64
2021/10/02 10:00:12;;;;;;;15.00;14.50;;;20.10;99.90;;;;;;5021087;28;20469;-64
2021/10/02 10:02:42;;;;;;;15.43;14.83;;;20.20;99.90;;;;;;5021759;28;20445;-63
2021/10/02 10:05:10;;;;;;;15.10;14.60;;;20.60;99.90;;;;;;5021450;28;20468;-64
2021/10/02 10:07:38;;;;;;;16.17;15.47;;;20.80;99.90;;;;;;5021722;28;20448;-62
2021/10/02 10:10:08;;;;;;;15.97;15.37;;;21.20;99.90;;;;;;5021456;28;20481;-64
2021/10/02 10:12:37;;;;;;;15.33;14.83;;;21.40;99.90;;;;;;5021932;28;20666;-63
2021/10/02 10:15:05;;;;;;;15.40;14.80;;;21.60;99.90;;;;;;5021364;28;20445;-64
2021/10/02 10:17:32;;;;;;;16.33;15.73;;;22.10;99.90;;;;;;5021745;28;20627;-63
2021/10/02 10:20:06;;;;;;;16.80;16.20;;;22.60;99.90;;;;;;5027397;28;20993;-66
2021/10/02 10:22:34;;;;;;;17.27;16.57;;;22.60;99.90;;;;;;5040895;28;20460;-65
2021/10/02 10:25:05;;;;;;;16.43;15.93;;;22.70;99.90;;;;;;5040478;28;20586;-65
2021/10/02 10:27:36;;;;;;;16.80;16.20;;;22.60;99.90;;;;;;5040693;28;20794;-64
2021/10/02 10:30:12;;;;;;;16.90;16.27;;;22.40;99.90;;;;;;5020693;28;20834;-65
2021/10/02 10:32:40;;;;;;;16.03;15.43;;;22.50;99.90;;;;;;5020852;28;20450;-64
2021/10/02 10:35:08;;;;;;;16.07;15.40;;;22.40;99.90;;;;;;5020827;28;20449;-66
2021/10/02 10:37:35;;;;;;;16.60;16.00;;;22.20;99.90;;;;;;5021445;28;20456;-65
2021/10/02 10:40:04;;;;;;;16.30;15.70;;;22.20;99.90;;;;;;5020217;28;20465;-64
2021/10/02 10:42:31;;;;;;;17.70;17.00;;;22.40;99.90;;;;;;5020426;28;20479;-64
2021/10/02 10:44:59;;;;;;;16.33;15.73;;;22.50;99.90;;;;;;5020409;28;21218;-63
2021/10/02 10:47:27;;;;;;;16.80;16.10;;;22.70;99.90;;;;;;5020336;28;20523;-63
2021/10/02 10:49:53;;;;;;;17.10;16.40;;;23.00;99.90;;;;;;5025033;28;20504;-62
2021/10/02 10:52:21;;;;;;;17.77;16.97;;;22.70;99.90;;;;;;5039843;28;20830;-64
2021/10/02 10:54:51;;;;;;;17.03;16.43;;;22.60;99.90;;;;;;5040189;28;20902;-63
2021/10/02 10:57:37;;;;;;;16.00;15.50;;;22.80;99.90;;;;;;5040026;28;20455;-64
2021/10/02 11:00:07;;;;;;;16.27;15.77;;;23.40;99.90;;;;;;5039675;28;20486;-63
2021/10/02 11:02:48;;;;;;;16.10;15.50;;;23.40;99.90;;;;;;5028048;28;20957;-63
2021/10/02 11:05:49;;;;;;;15.83;15.33;;;23.10;99.90;;;;;;5020061;28;20477;-62
2021/10/02 11:08:22;;;;;;;15.63;15.13;;;22.90;99.90;;;;;;5020247;28;20448;-64
2021/10/02 11:10:59;;;;;;;16.10;15.60;;;22.90;99.90;;;;;;5030336;28;20475;-63
2021/10/02 11:13:57;;;;;;;17.30;16.80;;;23.20;99.90;;;;;;5040002;28;20475;-63
2021/10/02 11:16:32;;;;;;;16.53;15.93;;;24.00;99.90;;;;;;5039948;28;20926;-65
2021/10/02 11:18:59;;;;;;;17.43;16.93;;;24.50;99.00;;;;;;5039598;28;20460;-64
2021/10/02 11:21:30;;;;;;;16.97;16.37;;;25.10;97.40;;;;;;5030990;28;20445;-64
2021/10/02 11:24:16;;;;;;;17.53;17.03;;;25.80;94.10;;;;;;5019730;28;21061;-63
2021/10/02 11:26:49;;;;;;;17.43;16.50;;;26.40;91.40;;;;;;5019789;28;20460;-63
2021/10/02 11:29:26;;;;;;;17.00;16.43;;;26.10;90.00;;;;;;5019488;28;20963;-64
2021/10/02 11:32:20;;;;;;;17.87;17.37;;;26.60;84.20;;;;;;5025475;28;20759;-65
2021/10/02 11:35:13;;;;;;;17.63;16.93;;;25.90;84.70;;;;;;5039667;28;20451;-63
2021/10/02 11:37:45;;;;;;;16.40;15.90;;;25.90;85.70;;;;;;5031343;28;20453;-63
2021/10/02 11:40:44;;;;;;;17.53;16.93;;;25.40;85.80;;;;;;5039555;28;20471;-64
2021/10/02 11:43:36;;;;;;;17.47;16.63;;;24.70;87.60;;;;;;5039441;28;20452;-63
2021/10/02 11:46:09;;;;;;;16.03;15.53;;;23.60;90.80;;;;;;5039458;28;20808;-64
2021/10/02 11:48:45;;;;;;;17.33;16.83;;;23.30;93.20;;;;;;5039073;28;20956;-63
2021/10/02 11:51:18;;;;;;;16.83;16.30;;;23.40;93.90;;;;;;5039346;28;20447;-61
2021/10/02 11:53:46;;;;;;;16.83;16.13;;;23.60;94.80;;;;;;5039398;28;20432;-64
2021/10/02 11:56:16;;;;;;;15.97;15.53;;;23.20;93.90;;;;;;5039572;28;20435;-64
2021/10/02 11:58:43;;;;;;;15.40;15.00;;;22.50;94.90;;;;;;5039127;28;20450;-64
2021/10/02 12:01:19;;;;;;;15.60;15.20;;;21.90;96.60;;;;;;5039307;28;20451;-64
2021/10/02 12:03:46;;;;;;;15.47;15.07;;;22.00;97.80;;;;;;5039343;28;20803;-63
2021/10/02 12:06:12;;;;;;;16.03;15.53;;;22.10;97.90;;;;;;5039141;28;20457;-64
2021/10/02 12:08:39;;;;;;;15.83;15.33;;;22.20;97.50;;;;;;5039110;28;20455;-63
2021/10/02 12:11:09;;;;;;;15.60;15.20;;;22.40;97.20;;;;;;5039392;28;20541;-63
2021/10/02 12:13:37;;;;;;;16.20;15.70;;;23.50;96.10;;;;;;5040410;28;20452;-64
2021/10/02 12:16:06;;;;;;;16.10;15.60;;;23.90;94.20;;;;;;5043346;28;20912;-63
2021/10/02 12:18:46;;;;;;;15.63;15.13;;;24.10;92.60;;;;;;5043087;28;20451;-63
2021/10/02 12:21:14;;;;;;;16.00;15.50;;;23.70;92.50;;;;;;5043083;28;20460;-63
2021/10/02 12:23:52;;;;;;;16.10;15.50;;;23.80;93.20;;;;;;5042912;28;20470;-63
2021/10/02 12:26:19;;;;;;;16.27;15.77;;;23.40;93.40;;;;;;5043271;28;20449;-64
2021/10/02 12:28:46;;;;;;;15.60;15.10;;;23.20;93.70;;;;;;5042605;28;20451;-63
2021/10/02 12:31:13;;;;;;;15.73;15.23;;;22.80;94.50;;;;;;5042918;28;21019;-62
2021/10/02 12:33:39;;;;;;;16.27;15.77;;;22.40;95.90;;;;;;5042765;28;20463;-65
2021/10/02 12:36:08;;;;;;;15.73;15.23;;;22.30;96.40;;;;;;5042800;28;20451;-64
2021/10/02 12:38:42;;;;;;;15.90;15.40;;;22.10;97.10;;;;;;5042410;28;20447;-64
2021/10/02 12:41:09;;;;;;;17.70;17.00;;;22.00;98.10;;;;;;5042727;28;20456;-62
2021/10/02 12:43:36;;;;;;;16.23;15.73;;;22.00;99.10;;;;;;5042862;28;20444;-64
2021/10/02 12:46:15;;;;;;;15.10;14.70;;;21.60;99.90;;;;;;5043112;28;20455;-64
2021/10/02 12:48:42;;;;;;;16.73;16.03;;;21.50;99.90;;;;;;5042103;28;20912;-64
2021/10/02 12:51:10;;;;;;;17.17;16.57;;;21.40;99.90;;;;;;5042308;28;20458;-63
2021/10/02 12:53:37;;;;;;;15.47;14.97;;;21.20;99.90;;;;;;5042495;28;20444;-62
2021/10/02 12:56:15;;;;;;;17.00;16.40;;;20.90;99.90;;;;;;5042575;28;20455;-61
2021/10/02 12:58:42;;;;;;;16.30;15.70;;;20.80;99.90;;;;;;5042102;28;20447;-62
2021/10/02 13:01:09;;;;;;;15.23;14.73;;;20.90;99.90;;;;;;5042336;28;20452;-62
2021/10/02 13:03:39;;;;;;;17.30;16.60;;;21.50;99.90;;;;;;5042339;28;21008;-62
2021/10/02 13:06:05;;;;;;;15.93;15.43;;;22.00;99.90;;;;;;5042329;28;20550;-63
2021/10/02 13:08:33;;;;;;;17.23;16.73;;;22.60;99.90;;;;;;5042064;28;20456;-62
2021/10/02 13:11:01;;;;;;;16.97;16.37;;;22.90;99.90;;;;;;5042176;28;20842;-63
2021/10/02 13:13:28;;;;;;;17.63;16.93;;;23.10;99.40;;;;;;5041127;28;20833;-63
2021/10/02 13:15:57;;;;;;;17.60;17.00;;;23.40;98.40;;;;;;5039652;28;20451;-63
2021/10/02 13:18:25;;;;;;;17.30;16.70;;;24.20;96.50;;;;;;5042129;28;20448;-63
2021/10/02 13:20:54;;;;;;;17.77;17.17;;;24.80;94.30;;;;;;5042296;28;20456;-64
2021/10/02 13:23:23;;;;;;;16.87;16.37;;;25.10;91.40;;;;;;5042181;28;20450;-65
2021/10/02 13:25:54;;;;;;;16.87;16.37;;;25.00;90.80;;;;;;5041241;28;20492;-65
2021/10/02 13:28:26;;;;;;;16.83;16.23;;;24.50;91.00;;;;;;5028496;28;20475;-65
2021/10/02 13:30:54;;;;;;;17.97;17.33;;;24.00;90.50;;;;;;5042357;28;20475;-65
2021/10/02 13:33:22;;;;;;;16.50;15.90;;;23.40;90.80;;;;;;5042089;28;20448;-65